Time;durP1;ratioP1;P1;durP2;ratioP2;P2;SDS_P1;SDS_P2;PMS_P1;PMS_P2;Temp;Humidity;BMP_temperature;BMP_pressure;BME280_temperature;BME280_humidity;BME280_pressure;Samples;Min_cycle;Max_cycle;Signal;HPM_P1;HPM_P2
2022/03/23 00:01:56;;;;;;;25.77;22.93;;;8.50;41.90;;;;;;5098407;28;20419;-35
2022/03/23 00:04:21;;;;;;;27.77;23.33;;;8.40;42.00;;;;;;5098669;28;20254;-34
2022/03/23 00:06:47;;;;;;;25.90;23.10;;;8.40;42.10;;;;;;5098487;28;20415;-38
2022/03/23 00:09:14;;;;;;;29.23;23.70;;;8.30;42.20;;;;;;5098627;28;20196;-34
2022/03/23 00:11:40;;;;;;;26.40;22.20;;;8.30;42.30;;;;;;5098924;28;20270;-35
2022/03/23 00:14:06;;;;;;;24.70;21.50;;;8.30;42.40;;;;;;5097133;28;20716;-35
2022/03/23 00:16:36;;;;;;;25.97;21.17;;;8.20;42.50;;;;;;5098416;28;20471;-36
2022/03/23 00:19:04;;;;;;;24.60;21.50;;;8.20;42.50;;;;;;5098387;28;20434;-35
2022/03/23 00:21:30;;;;;;;23.43;20.50;;;8.10;42.50;;;;;;5099161;28;20418;-38
2022/03/23 00:23:56;;;;;;;23.30;20.80;;;8.10;42.60;;;;;;5098903;28;20685;-36
2022/03/23 00:26:22;;;;;;;23.40;20.23;;;8.10;42.60;;;;;;5097224;28;20423;-36
2022/03/23 00:28:48;;;;;;;25.67;21.87;;;8.00;42.60;;;;;;5099647;28;20428;-36
2022/03/23 00:31:14;;;;;;;26.23;21.20;;;8.00;42.70;;;;;;5097426;28;20210;-36
2022/03/23 00:33:40;;;;;;;23.67;20.23;;;8.00;42.80;;;;;;5098513;28;20678;-36
2022/03/23 00:36:06;;;;;;;27.67;21.37;;;7.90;42.80;;;;;;5097349;28;20483;-38
2022/03/23 00:38:32;;;;;;;23.37;20.83;;;7.90;42.80;;;;;;5099194;28;20184;-35
2022/03/23 00:40:58;;;;;;;23.43;20.93;;;7.90;42.90;;;;;;5096917;28;20468;-35
2022/03/23 00:43:24;;;;;;;24.90;21.00;;;7.80;43.00;;;;;;5097673;28;20947;-40
2022/03/23 00:45:49;;;;;;;26.47;22.30;;;7.80;43.10;;;;;;5097529;28;20513;-37
2022/03/23 00:48:15;;;;;;;23.13;20.20;;;7.80;43.20;;;;;;5097584;28;20296;-35
2022/03/23 00:50:40;;;;;;;24.00;20.87;;;7.70;43.20;;;;;;5096556;28;20216;-34
2022/03/23 00:53:06;;;;;;;23.17;20.67;;;7.70;43.30;;;;;;5098676;28;20238;-35
2022/03/23 00:55:32;;;;;;;26.00;21.57;;;7.70;43.40;;;;;;5096797;28;20190;-36
2022/03/23 00:57:58;;;;;;;24.83;20.37;;;7.60;43.40;;;;;;5098835;28;20409;-35
2022/03/23 01:00:23;;;;;;;22.87;20.20;;;7.60;43.40;;;;;;5097142;28;20185;-34
2022/03/23 01:02:49;;;;;;;23.00;19.40;;;7.60;43.50;;;;;;5098376;28;20180;-34
2022/03/23 01:05:16;;;;;;;25.00;21.70;;;7.50;43.50;;;;;;5098517;28;20284;-36
2022/03/23 01:07:42;;;;;;;23.40;20.90;;;7.50;43.60;;;;;;5097298;28;20188;-34
2022/03/23 01:10:13;;;;;;;22.60;19.97;;;7.50;43.70;;;;;;5099029;28;20466;-40
2022/03/23 01:12:47;;;;;;;26.30;21.23;;;7.50;43.80;;;;;;5097335;28;20434;-36
2022/03/23 01:15:15;;;;;;;28.07;21.40;;;7.40;43.80;;;;;;5098765;28;20421;-37
2022/03/23 01:17:41;;;;;;;22.93;19.90;;;7.40;43.90;;;;;;5097266;28;20487;-38
2022/03/23 01:20:09;;;;;;;23.90;20.97;;;7.40;44.00;;;;;;5098150;28;20819;-37
2022/03/23 01:22:36;;;;;;;22.93;20.30;;;7.40;44.10;;;;;;5097817;28;20492;-37
2022/03/23 01:25:03;;;;;;;24.80;20.67;;;7.30;44.10;;;;;;5096004;28;20443;-35
2022/03/23 01:27:29;;;;;;;22.87;20.50;;;7.20;44.20;;;;;;5098345;28;20479;-36
2022/03/23 01:29:54;;;;;;;23.07;19.50;;;7.20;44.30;;;;;;5096668;28;20912;-34
2022/03/23 01:32:20;;;;;;;22.40;20.00;;;7.20;44.30;;;;;;5098416;28;20181;-35
2022/03/23 01:34:45;;;;;;;23.53;19.97;;;7.20;44.90;;;;;;5096529;28;20192;-35
2022/03/23 01:37:11;;;;;;;25.77;22.97;;;7.10;44.50;;;;;;5096727;28;20177;-35
2022/03/23 01:39:37;;;;;;;25.47;22.70;;;7.10;44.70;;;;;;5096589;28;20193;-36
2022/03/23 01:42:03;;;;;;;24.20;21.33;;;7.00;44.80;;;;;;5097115;28;20177;-34
2022/03/23 01:44:28;;;;;;;26.63;20.87;;;7.00;44.90;;;;;;5095906;28;20192;-33
2022/03/23 01:47:08;;;;;;;21.90;19.63;;;7.00;45.00;;;;;;5095431;28;20490;-35
2022/03/23 01:49:35;;;;;;;22.50;19.80;;;6.90;45.10;;;;;;5095493;28;20189;-36
2022/03/23 01:52:02;;;;;;;23.83;21.20;;;6.80;45.10;;;;;;5096644;28;20543;-34
2022/03/23 01:54:27;;;;;;;27.17;22.57;;;6.80;45.30;;;;;;5095372;28;20431;-39
2022/03/23 01:56:55;;;;;;;23.03;20.60;;;6.80;45.50;;;;;;5097115;28;20428;-38
2022/03/23 01:59:20;;;;;;;24.93;19.83;;;6.70;45.50;;;;;;5095249;28;20574;-33
2022/03/23 02:01:46;;;;;;;25.80;22.20;;;6.70;45.70;;;;;;5096301;28;20476;-35
2022/03/23 02:04:13;;;;;;;26.50;22.23;;;6.70;45.80;;;;;;5096243;28;20742;-36
2022/03/23 02:06:38;;;;;;;25.03;21.23;;;6.60;46.00;;;;;;5096920;28;20192;-36
2022/03/23 02:12:30;;;;;;;24.27;20.90;;;6.60;46.40;;;;;;5095567;28;20712;-35
2022/03/23 02:14:58;;;;;;;23.27;19.70;;;6.60;46.60;;;;;;5093859;28;20419;-36
2022/03/23 02:17:24;;;;;;;26.63;22.00;;;6.60;46.70;;;;;;5095046;28;20568;-38
2022/03/23 02:19:50;;;;;;;28.10;23.17;;;6.60;46.80;;;;;;5094685;28;20505;-36
2022/03/23 02:22:15;;;;;;;26.43;22.00;;;6.60;47.00;;;;;;5095181;28;20567;-35
2022/03/23 02:24:41;;;;;;;25.10;21.43;;;6.50;47.10;;;;;;5094661;28;20177;-36
2022/03/23 02:27:08;;;;;;;28.47;22.50;;;6.40;47.30;;;;;;5096990;28;20512;-38
2022/03/23 02:29:34;;;;;;;26.73;23.20;;;6.40;47.50;;;;;;5095445;28;20177;-37
2022/03/23 02:32:01;;;;;;;26.00;23.33;;;6.40;47.60;;;;;;5096741;28;20910;-39
2022/03/23 02:34:27;;;;;;;27.27;21.23;;;6.40;47.80;;;;;;5095547;28;20415;-35
2022/03/23 02:36:53;;;;;;;25.83;21.77;;;6.30;47.80;;;;;;5096129;28;20459;-35
2022/03/23 02:39:19;;;;;;;27.23;21.37;;;6.30;48.40;;;;;;5095296;28;20440;-34
2022/03/23 02:41:46;;;;;;;25.67;22.20;;;6.30;48.10;;;;;;5096181;28;20411;-36
2022/03/23 02:44:16;;;;;;;24.00;21.10;;;6.20;48.20;;;;;;5093998;28;20427;-38
2022/03/23 02:46:42;;;;;;;26.47;21.97;;;6.20;48.30;;;;;;5095154;28;20437;-35
2022/03/23 02:49:09;;;;;;;23.20;20.70;;;6.20;48.50;;;;;;5095251;28;20431;-36
2022/03/23 02:51:35;;;;;;;25.33;22.50;;;6.20;48.70;;;;;;5096192;28;20469;-38
2022/03/23 03:03:10;;;;;;;22.63;18.97;;;6.00;49.30;;;;;;5096222;28;20682;-33
2022/03/23 03:05:35;;;;;;;28.13;20.40;;;5.90;49.40;;;;;;5094809;28;20423;-32
2022/03/23 03:10:45;;;;;;;24.57;20.37;;;5.90;50.00;;;;;;5095143;28;20210;-31
2022/03/23 03:13:10;;;;;;;23.87;20.20;;;5.80;50.20;;;;;;5096422;28;20450;-33
2022/03/23 03:15:36;;;;;;;29.20;22.10;;;5.80;50.50;;;;;;5094484;28;20187;-34
2022/03/23 03:18:02;;;;;;;22.87;20.27;;;5.80;50.70;;;;;;5095551;28;20179;-33
2022/03/23 03:20:29;;;;;;;22.00;19.60;;;5.80;51.00;;;;;;5094220;28;20481;-35
2022/03/23 03:22:54;;;;;;;25.13;20.60;;;5.80;51.20;;;;;;5095737;28;20817;-36
2022/03/23 03:25:21;;;;;;;25.63;21.60;;;5.80;51.40;;;;;;5111278;28;20434;-37
2022/03/23 03:27:47;;;;;;;24.77;22.17;;;5.70;51.60;;;;;;5096680;28;20176;-35
2022/03/23 03:30:15;;;;;;;26.03;21.57;;;5.70;51.90;;;;;;5094800;28;20528;-35
2022/03/23 03:32:40;;;;;;;26.13;22.13;;;5.70;52.10;;;;;;5096395;28;20177;-34
2022/03/23 03:35:07;;;;;;;28.50;22.70;;;5.70;52.40;;;;;;5093939;28;20482;-32
2022/03/23 03:37:33;;;;;;;23.83;20.60;;;5.70;52.60;;;;;;5096183;28;20463;-33
2022/03/23 03:39:59;;;;;;;27.57;21.70;;;5.70;52.80;;;;;;5095145;28;20489;-35
2022/03/23 03:42:25;;;;;;;25.07;20.73;;;5.60;52.90;;;;;;5095832;28;20238;-34
2022/03/23 03:44:51;;;;;;;24.90;19.97;;;5.60;53.00;;;;;;5094433;28;20468;-32
2022/03/23 03:47:18;;;;;;;24.53;20.30;;;5.60;53.00;;;;;;5093993;28;20440;-37
2022/03/23 03:49:44;;;;;;;23.73;21.23;;;5.60;53.10;;;;;;5093072;28;20181;-39
2022/03/23 03:52:09;;;;;;;23.70;20.13;;;5.70;52.80;;;;;;5095563;28;20515;-36
2022/03/23 03:54:35;;;;;;;25.43;21.17;;;5.60;52.70;;;;;;5094793;28;20745;-34
2022/03/23 03:57:01;;;;;;;27.77;20.93;;;5.60;52.90;;;;;;5095778;28;20201;-35
2022/03/23 03:59:28;;;;;;;25.50;21.47;;;5.60;53.20;;;;;;5094071;28;20260;-34
2022/03/23 04:01:54;;;;;;;22.33;19.93;;;5.50;53.40;;;;;;5094591;28;20169;-34
2022/03/23 04:04:19;;;;;;;24.57;21.40;;;5.50;53.70;;;;;;5095050;28;20759;-34
2022/03/23 04:06:45;;;;;;;24.93;20.20;;;5.40;54.00;;;;;;5093852;28;20571;-34
2022/03/23 04:09:10;;;;;;;25.30;20.37;;;5.40;54.20;;;;;;5094495;28;20185;-35
2022/03/23 04:11:36;;;;;;;26.67;21.40;;;5.40;54.40;;;;;;5099074;28;20204;-36
2022/03/23 04:14:02;;;;;;;24.70;20.70;;;5.40;54.60;;;;;;5098285;28;20224;-37
2022/03/23 04:16:28;;;;;;;22.03;19.07;;;5.30;54.80;;;;;;5099318;28;20760;-34
2022/03/23 04:18:53;;;;;;;23.50;20.60;;;5.30;55.10;;;;;;5097828;28;20514;-34
2022/03/23 04:21:19;;;;;;;26.70;21.30;;;5.30;55.40;;;;;;5098539;28;20877;-32
2022/03/23 04:23:45;;;;;;;27.43;22.37;;;5.20;55.50;;;;;;5097837;28;20300;-34
2022/03/23 04:26:10;;;;;;;24.00;20.57;;;5.20;55.70;;;;;;5098782;28;20187;-32
2022/03/23 04:28:36;;;;;;;26.57;21.83;;;5.20;55.90;;;;;;5097895;28;20544;-35
2022/03/23 04:31:02;;;;;;;23.53;21.07;;;5.20;56.10;;;;;;5098921;28;20262;-33
2022/03/23 04:33:28;;;;;;;25.37;21.33;;;5.10;56.10;;;;;;5094507;28;20202;-35
2022/03/23 04:35:54;;;;;;;25.60;20.97;;;5.10;56.20;;;;;;5096024;28;20561;-34
2022/03/23 04:38:20;;;;;;;26.17;21.97;;;5.10;56.40;;;;;;5096841;28;20421;-34
2022/03/23 04:40:45;;;;;;;23.30;20.70;;;5.10;56.60;;;;;;5097012;28;20240;-34
2022/03/23 04:43:11;;;;;;;27.40;21.87;;;5.10;56.80;;;;;;5097774;28;20520;-35
2022/03/23 04:45:36;;;;;;;24.30;21.50;;;5.10;56.90;;;;;;5096192;28;20177;-35
2022/03/23 04:48:02;;;;;;;22.43;20.03;;;5.00;56.90;;;;;;5097210;28;20180;-33
2022/03/23 04:50:28;;;;;;;25.40;21.53;;;5.00;57.10;;;;;;5095411;28;20474;-35
2022/03/23 04:52:54;;;;;;;27.03;21.77;;;5.00;57.20;;;;;;5096908;28;20278;-33
2022/03/23 04:55:20;;;;;;;25.73;20.93;;;4.90;57.30;;;;;;5096484;28;20449;-34
2022/03/23 04:57:46;;;;;;;23.93;21.07;;;4.90;57.40;;;;;;5097755;28;20185;-33
2022/03/23 05:00:15;;;;;;;26.27;21.63;;;4.90;57.50;;;;;;5095481;28;20868;-32
2022/03/23 05:02:42;;;;;;;23.00;20.53;;;4.90;57.70;;;;;;5094706;28;20173;-41
2022/03/23 05:05:11;;;;;;;23.13;20.20;;;4.90;57.90;;;;;;5095174;28;20415;-42
2022/03/23 05:07:37;;;;;;;25.40;20.33;;;4.90;58.10;;;;;;5095596;28;20438;-43
2022/03/23 05:10:03;;;;;;;28.40;21.87;;;4.90;58.20;;;;;;5094544;28;21020;-43
2022/03/23 05:12:29;;;;;;;25.40;21.50;;;4.90;58.20;;;;;;5095902;28;20411;-43
2022/03/23 05:14:54;;;;;;;24.67;20.93;;;4.90;58.30;;;;;;5094204;28;20455;-42
2022/03/23 05:17:20;;;;;;;22.40;19.80;;;4.90;58.30;;;;;;5095529;28;20447;-43
2022/03/23 05:19:46;;;;;;;24.37;20.50;;;4.90;58.30;;;;;;5096293;28;20188;-41
2022/03/23 05:22:12;;;;;;;23.80;20.80;;;4.90;58.20;;;;;;5105761;28;20208;-43
2022/03/23 05:24:39;;;;;;;24.47;20.27;;;4.90;58.30;;;;;;5115209;28;20176;-43
2022/03/23 05:27:06;;;;;;;25.57;21.07;;;4.90;58.40;;;;;;5116040;28;20417;-43
2022/03/23 05:29:32;;;;;;;24.47;20.57;;;4.90;58.50;;;;;;5113015;28;20733;-42
2022/03/23 05:31:58;;;;;;;26.33;20.60;;;4.90;58.50;;;;;;5112365;28;20406;-41
2022/03/23 05:34:24;;;;;;;24.00;20.83;;;4.90;58.60;;;;;;5109605;28;20445;-43
2022/03/23 05:36:50;;;;;;;26.37;20.07;;;4.90;58.70;;;;;;5112549;28;20458;-43
2022/03/23 05:39:15;;;;;;;24.60;20.40;;;5.00;58.70;;;;;;5113472;28;20210;-42
2022/03/23 05:41:41;;;;;;;25.57;22.17;;;5.00;58.80;;;;;;5116015;28;20196;-41
2022/03/23 05:44:07;;;;;;;28.73;22.17;;;5.00;59.20;;;;;;5113953;28;20179;-43
2022/03/23 05:46:32;;;;;;;24.23;20.13;;;5.00;58.70;;;;;;5115365;28;20156;-43
2022/03/23 05:48:58;;;;;;;23.43;19.60;;;5.10;58.70;;;;;;5113665;28;20249;-41
2022/03/23 05:51:24;;;;;;;23.30;19.60;;;5.10;58.70;;;;;;5114598;28;20596;-41
2022/03/23 05:53:50;;;;;;;24.00;20.57;;;5.10;58.60;;;;;;5114120;28;20429;-43
2022/03/23 05:56:16;;;;;;;25.07;20.47;;;5.20;58.70;;;;;;5114372;28;20247;-42
2022/03/23 05:58:42;;;;;;;26.00;21.30;;;5.20;59.10;;;;;;5110157;28;20516;-42
2022/03/23 06:01:07;;;;;;;26.33;22.10;;;5.30;58.70;;;;;;5110920;28;20280;-43
2022/03/23 06:03:35;;;;;;;23.93;21.00;;;5.30;58.60;;;;;;5110896;28;20406;-43
2022/03/23 06:06:01;;;;;;;23.50;20.40;;;5.50;58.60;;;;;;5111905;28;20464;-43
2022/03/23 06:08:27;;;;;;;25.27;20.53;;;5.60;58.50;;;;;;5112243;28;20505;-43
2022/03/23 06:10:53;;;;;;;25.93;21.27;;;5.70;58.50;;;;;;5111312;28;20529;-43
2022/03/23 06:13:19;;;;;;;24.90;21.70;;;5.80;58.30;;;;;;5111064;28;20420;-41
2022/03/23 06:15:46;;;;;;;25.13;21.37;;;5.90;58.00;;;;;;5109576;28;20454;-41
2022/03/23 06:18:13;;;;;;;30.47;25.07;;;6.10;57.70;;;;;;5111627;28;20738;-42
2022/03/23 06:20:38;;;;;;;25.90;21.10;;;6.20;57.40;;;;;;5110814;28;20461;-42
2022/03/23 06:23:05;;;;;;;28.77;22.30;;;6.30;57.20;;;;;;5111035;28;20903;-40
2022/03/23 06:25:31;;;;;;;26.77;23.87;;;6.50;57.00;;;;;;5110691;28;20176;-43
2022/03/23 06:27:58;;;;;;;27.33;23.80;;;6.70;56.60;;;;;;5111460;28;20406;-46
2022/03/23 06:30:25;;;;;;;26.70;22.40;;;6.90;56.10;;;;;;5110025;28;20398;-44
2022/03/23 06:32:51;;;;;;;30.43;24.07;;;7.00;55.60;;;;;;5109750;28;20444;-43
2022/03/23 06:35:17;;;;;;;29.00;25.70;;;7.20;55.30;;;;;;5105823;28;21200;-43
2022/03/23 06:37:43;;;;;;;32.47;26.60;;;7.40;54.80;;;;;;5107539;28;20536;-43
2022/03/23 06:40:10;;;;;;;32.47;25.90;;;7.60;54.10;;;;;;5112087;28;20432;-44
2022/03/23 06:42:36;;;;;;;34.37;26.93;;;7.80;53.40;;;;;;5110562;28;20425;-43
2022/03/23 06:45:02;;;;;;;30.97;27.00;;;8.10;52.30;;;;;;5107733;28;20432;-43
2022/03/23 06:47:28;;;;;;;34.90;28.70;;;8.40;51.40;;;;;;5106838;28;20177;-42
2022/03/23 06:49:54;;;;;;;32.90;28.40;;;8.60;50.70;;;;;;5107372;28;20496;-43
2022/03/23 06:52:19;;;;;;;33.67;28.50;;;8.90;50.10;;;;;;5106338;28;20982;-43
2022/03/23 06:54:45;;;;;;;31.63;25.90;;;9.10;49.50;;;;;;5108931;28;20199;-42
2022/03/23 06:57:11;;;;;;;31.30;26.60;;;9.40;48.90;;;;;;5097459;28;20823;-42
2022/03/23 06:59:37;;;;;;;31.70;26.37;;;9.70;48.30;;;;;;5097518;28;20545;-42
2022/03/23 07:02:03;;;;;;;31.10;26.63;;;10.00;47.00;;;;;;5098311;28;20541;-43
2022/03/23 07:04:29;;;;;;;29.17;25.60;;;10.20;46.30;;;;;;5096996;28;20208;-43
2022/03/23 07:06:54;;;;;;;30.37;27.07;;;10.50;46.00;;;;;;5096091;28;20506;-43
2022/03/23 07:09:32;;;;;;;28.73;25.67;;;10.80;45.60;;;;;;5098455;28;20613;-43
2022/03/23 07:12:05;;;;;;;26.60;23.83;;;11.00;45.20;;;;;;5099093;28;20181;-43
2022/03/23 07:14:32;;;;;;;29.80;23.83;;;11.40;44.70;;;;;;5097392;28;20536;-43
2022/03/23 07:16:58;;;;;;;26.80;24.00;;;11.60;44.20;;;;;;5101075;28;20435;-43
2022/03/23 07:19:24;;;;;;;27.40;24.40;;;11.90;43.70;;;;;;5099531;28;21053;-42
2022/03/23 07:21:50;;;;;;;24.80;22.30;;;12.20;43.10;;;;;;5100250;28;20692;-43
2022/03/23 07:24:16;;;;;;;25.40;22.70;;;12.40;42.60;;;;;;5094507;28;20407;-43
2022/03/23 07:26:41;;;;;;;23.30;20.80;;;12.70;42.10;;;;;;5088451;28;20434;-43
2022/03/23 07:29:07;;;;;;;26.87;23.40;;;12.90;41.70;;;;;;5089734;28;20378;-43
2022/03/23 07:31:34;;;;;;;25.53;22.53;;;13.10;41.30;;;;;;5090389;28;20592;-43
2022/03/23 07:33:59;;;;;;;24.97;22.30;;;13.40;41.00;;;;;;5088149;28;20242;-43
2022/03/23 07:36:25;;;;;;;26.13;22.10;;;13.60;40.60;;;;;;5086348;28;20991;-43
2022/03/23 07:38:52;;;;;;;23.43;20.90;;;13.90;40.40;;;;;;5088834;28;20272;-44
2022/03/23 07:41:18;;;;;;;26.70;22.90;;;14.20;40.10;;;;;;5088154;28;20907;-43
2022/03/23 07:43:43;;;;;;;25.53;22.77;;;14.50;39.80;;;;;;5089056;28;20403;-43
2022/03/23 07:46:09;;;;;;;23.77;21.10;;;14.80;39.50;;;;;;5093135;28;20755;-42
2022/03/23 07:48:35;;;;;;;25.73;21.70;;;15.20;39.20;;;;;;5093741;28;20443;-43
2022/03/23 07:51:01;;;;;;;26.37;23.87;;;15.60;38.80;;;;;;5094273;28;20434;-44
2022/03/23 07:53:26;;;;;;;27.07;22.60;;;15.90;38.40;;;;;;5095281;28;20177;-43
2022/03/23 07:55:52;;;;;;;24.33;22.10;;;16.20;38.00;;;;;;5103037;28;20507;-43
2022/03/23 07:58:17;;;;;;;23.23;20.87;;;16.50;37.60;;;;;;5107353;28;20785;-44
2022/03/23 08:00:43;;;;;;;26.10;23.50;;;16.80;37.10;;;;;;5103185;28;20212;-43
2022/03/23 08:03:13;;;;;;;18.80;16.87;;;17.10;36.80;;;;;;5105855;28;20169;-43
2022/03/23 08:05:39;;;;;;;15.57;13.90;;;17.50;37.40;;;;;;5101057;28;20186;-45
2022/03/23 08:08:07;;;;;;;10.97;8.13;;;18.00;40.40;;;;;;5102737;28;20436;-44
2022/03/23 08:10:34;;;;;;;10.40;8.90;;;18.60;43.10;;;;;;5086287;28;20427;-45
2022/03/23 08:13:00;;;;;;;10.73;8.60;;;19.30;43.80;;;;;;5103058;28;20521;-45
2022/03/23 08:15:28;;;;;;;11.73;9.20;;;19.90;43.50;;;;;;5101828;28;20498;-45
2022/03/23 08:17:55;;;;;;;14.30;11.13;;;20.50;42.40;;;;;;5099660;28;20181;-45
2022/03/23 08:20:33;;;;;;;15.00;10.13;;;21.10;41.10;;;;;;5103037;28;21021;-45
2022/03/23 08:23:00;;;;;;;11.50;10.40;;;21.80;40.10;;;;;;5102280;28;20452;-45
2022/03/23 08:25:27;;;;;;;12.60;11.10;;;22.40;38.90;;;;;;5101677;28;20464;-45
2022/03/23 08:27:55;;;;;;;13.13;11.93;;;23.10;38.30;;;;;;5104602;28;20608;-46
2022/03/23 08:30:20;;;;;;;16.47;12.87;;;23.70;37.10;;;;;;5104203;28;20465;-46
2022/03/23 08:32:46;;;;;;;16.50;14.90;;;24.20;35.80;;;;;;5102467;28;20807;-46
2022/03/23 08:35:12;;;;;;;16.63;15.03;;;24.70;34.70;;;;;;5106003;28;20234;-46
2022/03/23 08:37:38;;;;;;;14.57;13.27;;;25.20;33.70;;;;;;5101609;28;20174;-46
2022/03/23 08:40:05;;;;;;;16.97;15.37;;;25.60;32.90;;;;;;5104374;28;20177;-46
2022/03/23 08:42:30;;;;;;;17.63;15.93;;;26.20;32.10;;;;;;5103405;28;20427;-46
2022/03/23 08:44:56;;;;;;;18.37;16.50;;;26.60;31.20;;;;;;5104745;28;20428;-46
2022/03/23 08:47:22;;;;;;;19.40;17.50;;;27.10;30.30;;;;;;5107759;28;20168;-46
2022/03/23 08:49:48;;;;;;;18.20;16.50;;;27.60;29.60;;;;;;5103652;28;20191;-46
2022/03/23 08:52:14;;;;;;;20.07;18.17;;;28.00;28.90;;;;;;5103788;28;20549;-46
2022/03/23 08:54:39;;;;;;;20.57;18.53;;;28.30;28.40;;;;;;5104759;28;20191;-46
2022/03/23 08:57:05;;;;;;;22.33;20.40;;;28.70;27.60;;;;;;5104995;28;20248;-46
2022/03/23 08:59:30;;;;;;;23.80;20.23;;;29.00;27.30;;;;;;5103141;28;20229;-46
2022/03/23 09:01:56;;;;;;;19.80;17.93;;;29.30;26.80;;;;;;5105249;28;20297;-46
2022/03/23 09:04:22;;;;;;;20.47;17.97;;;29.70;27.10;;;;;;5102039;28;20181;-46
2022/03/23 09:06:48;;;;;;;18.40;16.70;;;30.00;27.10;;;;;;5102155;27;20410;-46
2022/03/23 09:09:14;;;;;;;21.27;19.40;;;30.50;27.20;;;;;;5104019;28;20502;-46
2022/03/23 09:11:43;;;;;;;21.33;19.43;;;30.70;26.30;;;;;;5101290;28;20185;-46
2022/03/23 09:14:10;;;;;;;17.57;16.07;;;31.00;25.80;;;;;;5102633;28;20708;-46
2022/03/23 09:16:35;;;;;;;16.13;14.70;;;31.50;26.70;;;;;;5098636;28;20433;-46
2022/03/23 09:19:02;;;;;;;15.80;14.50;;;31.90;26.60;;;;;;5104700;28;20407;-48
2022/03/23 09:21:27;;;;;;;15.27;14.00;;;32.10;26.40;;;;;;5102287;28;20208;-47
2022/03/23 09:23:54;;;;;;;15.60;14.20;;;31.90;26.80;;;;;;5101832;28;20805;-47
2022/03/23 09:26:21;;;;;;;15.33;13.47;;;31.90;26.90;;;;;;5103233;28;20177;-48
2022/03/23 09:28:46;;;;;;;16.20;14.80;;;32.00;26.90;;;;;;5102958;28;20709;-47
2022/03/23 09:31:12;;;;;;;14.47;13.27;;;32.20;26.60;;;;;;5112147;28;20472;-47
2022/03/23 09:33:38;;;;;;;16.77;15.13;;;32.40;26.40;;;;;;5113312;28;20534;-48
2022/03/23 09:36:04;;;;;;;16.30;15.00;;;32.60;26.00;;;;;;5112644;28;20216;-47
2022/03/23 09:38:30;;;;;;;17.33;15.83;;;32.60;25.80;;;;;;5113921;28;20469;-47
2022/03/23 09:40:56;;;;;;;18.20;16.50;;;32.50;25.70;;;;;;5112009;28;20389;-47
2022/03/23 09:43:24;;;;;;;16.57;15.07;;;32.60;25.60;;;;;;5114398;28;20173;-48
2022/03/23 09:45:51;;;;;;;17.17;15.67;;;32.60;25.50;;;;;;5112074;28;20517;-47
2022/03/23 09:48:21;;;;;;;16.27;14.67;;;32.50;25.40;;;;;;5114628;28;20411;-47
2022/03/23 09:50:50;;;;;;;16.80;15.30;;;32.40;25.70;;;;;;5111743;28;20483;-47
2022/03/23 09:53:16;;;;;;;14.63;13.33;;;32.40;25.60;;;;;;5112055;28;20401;-47
2022/03/23 09:55:43;;;;;;;17.50;14.77;;;32.40;25.80;;;;;;5113313;28;20471;-48
2022/03/23 09:58:09;;;;;;;16.20;14.60;;;32.50;25.70;;;;;;5114442;28;20409;-48
2022/03/23 10:00:37;;;;;;;15.13;13.93;;;32.60;25.70;;;;;;5113678;28;20516;-48
2022/03/23 10:03:12;;;;;;;14.50;13.40;;;32.90;25.40;;;;;;5114132;28;20511;-48
2022/03/23 10:06:16;;;;;;;11.63;10.73;;;33.30;24.70;;;;;;5114635;28;20714;-48
2022/03/23 10:08:53;;;;;;;10.30;9.57;;;33.50;24.60;;;;;;5114580;28;20429;-48
2022/03/23 10:11:42;;;;;;;11.90;11.00;;;33.90;24.30;;;;;;5110056;28;20461;-48
2022/03/23 10:14:30;;;;;;;10.70;9.80;;;34.20;23.70;;;;;;5107976;28;20420;-48
2022/03/23 10:17:32;;;;;;;11.63;10.53;;;34.70;24.00;;;;;;5111361;28;20644;-48
2022/03/23 10:19:59;;;;;;;8.80;8.10;;;35.00;23.40;;;;;;5111946;28;20471;-48
2022/03/23 10:22:28;;;;;;;10.73;9.83;;;35.70;23.70;;;;;;5108106;28;20392;-48
2022/03/23 10:24:55;;;;;;;9.33;8.63;;;36.10;23.00;;;;;;5108448;28;20398;-48
2022/03/23 10:27:23;;;;;;;9.33;8.60;;;36.50;23.20;;;;;;5108149;28;20469;-44
2022/03/23 10:29:52;;;;;;;9.87;8.90;;;37.00;22.70;;;;;;5108938;28;20413;-44
2022/03/23 10:32:21;;;;;;;9.57;8.73;;;37.60;22.30;;;;;;5106313;28;20731;-43
2022/03/23 10:34:50;;;;;;;9.30;8.50;;;38.20;22.60;;;;;;5106924;28;20935;-44
2022/03/23 10:37:39;;;;;;;10.00;9.17;;;38.70;22.10;;;;;;5108652;28;20433;-42
2022/03/23 10:40:08;;;;;;;9.77;8.47;;;39.10;21.80;;;;;;5107521;28;20495;-42
2022/03/23 10:42:40;;;;;;;11.00;9.90;;;39.60;21.70;;;;;;5110492;28;20422;-42
2022/03/23 10:45:20;;;;;;;8.80;8.10;;;40.00;21.20;;;;;;5109936;28;20410;-43
2022/03/23 10:47:47;;;;;;;10.20;9.37;;;40.20;21.20;;;;;;5110088;28;20427;-43
2022/03/23 10:50:17;;;;;;;9.73;9.03;;;40.50;21.00;;;;;;5108396;28;20407;-43
2022/03/23 10:52:57;;;;;;;8.40;7.87;;;40.60;20.80;;;;;;5107691;28;20430;-43
2022/03/23 10:55:25;;;;;;;8.73;7.90;;;40.80;21.00;;;;;;5107770;28;20419;-43
2022/03/23 10:57:51;;;;;;;8.83;8.23;;;41.20;21.00;;;;;;5105766;28;20459;-43
2022/03/23 11:00:34;;;;;;;9.83;9.03;;;41.50;20.40;;;;;;5108522;28;20880;-43
2022/03/23 11:03:01;;;;;;;8.60;7.70;;;41.60;20.60;;;;;;5108072;28;20250;-47
2022/03/23 11:05:31;;;;;;;9.03;8.23;;;41.40;20.80;;;;;;5107746;28;20410;-49
2022/03/23 11:08:09;;;;;;;12.87;8.60;;;40.50;21.10;;;;;;5108291;28;20488;-45
2022/03/23 11:16:27;;;;;;;8.97;8.07;;;38.60;21.40;;;;;;5107462;28;20843;-40
2022/03/23 11:19:24;;;;;;;8.90;7.40;;;38.40;21.40;;;;;;5107862;28;20436;-46
2022/03/23 11:22:12;;;;;;;8.07;7.27;;;38.00;21.90;;;;;;5109619;28;20519;-50
2022/03/23 11:24:40;;;;;;;7.30;6.70;;;38.00;21.90;;;;;;5107240;28;20428;-45
2022/03/23 11:27:17;;;;;;;7.90;7.10;;;37.80;22.20;;;;;;5104841;28;20466;-48
2022/03/23 11:29:44;;;;;;;8.70;7.90;;;37.50;21.90;;;;;;5098858;28;20441;-46
2022/03/23 11:32:24;;;;;;;7.73;7.07;;;37.40;21.50;;;;;;5097764;28;20942;-45
2022/03/23 11:34:51;;;;;;;8.80;8.10;;;37.30;21.70;;;;;;5086198;28;20414;-45
2022/03/23 11:37:19;;;;;;;7.60;6.90;;;37.20;21.70;;;;;;5088089;28;20423;-47
2022/03/23 11:39:45;;;;;;;7.83;7.13;;;37.20;21.70;;;;;;5087645;28;20421;-45
2022/03/23 11:42:13;;;;;;;8.27;7.57;;;37.20;21.60;;;;;;5091350;28;20959;-43
2022/03/23 11:44:40;;;;;;;6.20;5.70;;;37.20;21.70;;;;;;5109832;28;20411;-43
2022/03/23 11:47:11;;;;;;;7.80;7.20;;;37.30;21.80;;;;;;5106019;28;20838;-43
2022/03/23 11:49:50;;;;;;;7.10;6.60;;;37.40;21.80;;;;;;5106833;28;20411;-45
2022/03/23 11:52:19;;;;;;;7.47;6.87;;;37.50;21.70;;;;;;5108460;28;20524;-44
2022/03/23 11:57:54;;;;;;;6.70;6.10;;;37.70;21.30;;;;;;5104457;28;20416;-45
2022/03/23 12:00:26;;;;;;;6.50;6.00;;;37.80;21.40;;;;;;5102691;28;20441;-46
2022/03/23 12:02:53;;;;;;;5.93;5.43;;;37.90;21.40;;;;;;5107920;28;20417;-46
2022/03/23 12:05:30;;;;;;;6.73;6.20;;;38.00;21.30;;;;;;5106420;28;20385;-44
2022/03/23 12:07:56;;;;;;;6.97;6.47;;;38.10;21.20;;;;;;5109036;28;20518;-46
2022/03/23 12:10:24;;;;;;;6.80;6.30;;;38.20;21.30;;;;;;5107734;28;20474;-45
2022/03/23 12:12:50;;;;;;;6.77;6.20;;;38.40;21.20;;;;;;5105919;28;20501;-47
2022/03/23 12:15:26;;;;;;;6.63;6.07;;;38.50;21.00;;;;;;5108380;28;20575;-46
2022/03/23 12:18:02;;;;;;;6.90;6.30;;;38.60;21.10;;;;;;5109317;28;20201;-44
2022/03/23 12:20:37;;;;;;;7.20;6.60;;;38.60;20.80;;;;;;5105698;28;20824;-46
2022/03/23 12:23:34;;;;;;;7.33;6.73;;;38.80;21.00;;;;;;5096754;28;20906;-48
2022/03/23 12:26:27;;;;;;;7.20;6.60;;;38.80;20.80;;;;;;5083486;28;20760;-44
2022/03/23 12:29:00;;;;;;;7.23;6.53;;;38.90;21.00;;;;;;5122999;28;20442;-45
2022/03/23 12:31:36;;;;;;;6.80;6.20;;;39.10;20.80;;;;;;5092412;28;20451;-46
2022/03/23 12:34:26;;;;;;;6.30;5.80;;;39.10;20.70;;;;;;5089499;28;20440;-45
2022/03/23 12:36:56;;;;;;;7.00;6.40;;;39.20;20.80;;;;;;5088958;28;20476;-44
2022/03/23 12:39:25;;;;;;;6.97;6.40;;;39.40;20.80;;;;;;5089785;28;20414;-46
2022/03/23 12:41:50;;;;;;;6.83;6.33;;;39.40;20.80;;;;;;5094129;28;21044;-47
2022/03/23 12:44:16;;;;;;;6.93;6.43;;;39.50;20.10;;;;;;5084009;28;20426;-47
2022/03/23 12:46:46;;;;;;;6.83;6.13;;;39.50;20.80;;;;;;5100720;28;20206;-46
2022/03/23 12:57:52;;;;;;;7.37;5.97;;;39.60;20.10;;;;;;5101525;28;20460;-46
2022/03/23 13:00:27;;;;;;;6.80;6.30;;;39.60;20.40;;;;;;5103009;28;20421;-44
2022/03/23 13:03:05;;;;;;;7.63;7.00;;;39.70;20.60;;;;;;5100119;28;20408;-47
2022/03/23 13:05:58;;;;;;;7.23;6.63;;;39.70;20.40;;;;;;5103180;28;20413;-46
2022/03/23 13:08:30;;;;;;;7.07;6.40;;;39.70;20.60;;;;;;5101952;28;20924;-45
2022/03/23 13:10:59;;;;;;;6.90;6.40;;;39.80;20.60;;;;;;5101892;28;20482;-46
2022/03/23 13:13:29;;;;;;;6.90;5.50;;;39.90;20.40;;;;;;5100320;28;20430;-49